Time;durP1;ratioP1;P1;durP2;ratioP2;P2;SDS_P1;SDS_P2;PMS_P1;PMS_P2;Temp;Humidity;BMP_temperature;BMP_pressure;BME280_temperature;BME280_humidity;BME280_pressure;Samples;Min_cycle;Max_cycle;Signal;HPM_P1;HPM_P2
2021/09/09 00:00:10;;;;;;;12.55;7.68;;;;;;;;;;5051727;28;20065;-59
2021/09/09 00:02:36;;;;;;;11.88;7.07;;;;;;;;;;5051229;28;20040;-59
2021/09/09 00:05:02;;;;;;;12.98;7.05;;;;;;;;;;5056973;28;20366;-55
2021/09/09 00:07:27;;;;;;;11.90;6.85;;;;;;;;;;5062820;28;20021;-60
2021/09/09 00:09:53;;;;;;;11.80;6.90;;;;;;;;;;5048578;28;20032;-60
2021/09/09 00:12:19;;;;;;;11.00;6.28;;;;;;;;;;5044889;28;20030;-59
2021/09/09 00:14:45;;;;;;;11.32;6.88;;;;;;;;;;5051481;28;20033;-59
2021/09/09 00:17:11;;;;;;;15.75;8.15;;;;;;;;;;5058195;28;20064;-59
2021/09/09 00:19:37;;;;;;;15.23;7.00;;;;;;;;;;5043517;28;20072;-59
2021/09/09 00:22:03;;;;;;;14.23;8.05;;;;;;;;;;5060986;28;20025;-58
2021/09/09 00:24:29;;;;;;;12.80;8.10;;;;;;;;;;5052801;28;20086;-58
2021/09/09 00:26:55;;;;;;;12.57;7.05;;;;;;;;;;5060436;28;20104;-59
2021/09/09 00:29:21;;;;;;;12.35;7.40;;;;;;;;;;5055344;28;20059;-60
2021/09/09 00:31:47;;;;;;;11.48;6.78;;;;;;;;;;5055948;28;20025;-58
2021/09/09 00:34:13;;;;;;;10.95;6.93;;;;;;;;;;5052291;28;20057;-55
2021/09/09 00:36:39;;;;;;;15.38;7.80;;;;;;;;;;5053780;28;20021;-57
2021/09/09 00:39:05;;;;;;;12.43;7.35;;;;;;;;;;5053437;28;20033;-57
2021/09/09 00:41:33;;;;;;;14.38;7.63;;;;;;;;;;5041093;28;20116;-57
2021/09/09 00:43:59;;;;;;;13.60;8.05;;;;;;;;;;5035225;28;20051;-59
2021/09/09 00:46:26;;;;;;;12.88;7.30;;;;;;;;;;5057546;28;20025;-59
2021/09/09 00:48:52;;;;;;;12.80;7.72;;;;;;;;;;5055285;28;20075;-55
2021/09/09 00:51:18;;;;;;;19.33;8.05;;;;;;;;;;5049581;28;20056;-60
2021/09/09 00:53:45;;;;;;;13.98;7.55;;;;;;;;;;5054023;28;20025;-59
2021/09/09 00:56:12;;;;;;;15.10;8.65;;;;;;;;;;5031219;28;20540;-60
2021/09/09 00:58:41;;;;;;;11.30;7.07;;;;;;;;;;5050226;28;20047;-58
2021/09/09 01:01:07;;;;;;;14.60;7.80;;;;;;;;;;5052390;28;20043;-59
2021/09/09 01:03:33;;;;;;;13.85;7.50;;;;;;;;;;5047902;28;20119;-58
2021/09/09 01:05:59;;;;;;;14.95;8.15;;;;;;;;;;5049997;28;20036;-59
2021/09/09 01:08:25;;;;;;;14.38;7.85;;;;;;;;;;5068101;28;20025;-56
2021/09/09 01:10:51;;;;;;;15.25;7.72;;;;;;;;;;5040930;28;20060;-56
2021/09/09 01:13:17;;;;;;;12.98;7.32;;;;;;;;;;5049348;28;20488;-54
2021/09/09 01:15:44;;;;;;;13.70;7.07;;;;;;;;;;5043574;28;20029;-57
2021/09/09 01:18:11;;;;;;;13.48;7.65;;;;;;;;;;5035695;28;20044;-56
2021/09/09 01:20:37;;;;;;;13.40;7.75;;;;;;;;;;5058549;28;20060;-55
2021/09/09 01:23:04;;;;;;;12.57;7.05;;;;;;;;;;5038193;28;20070;-58
2021/09/09 01:25:30;;;;;;;12.93;7.32;;;;;;;;;;5040579;28;20025;-58
2021/09/09 01:27:56;;;;;;;13.35;7.47;;;;;;;;;;5055591;28;20130;-56
2021/09/09 01:30:22;;;;;;;12.68;6.45;;;;;;;;;;5056782;28;20021;-58
2021/09/09 01:32:48;;;;;;;11.38;7.50;;;;;;;;;;5052522;28;20115;-58
2021/09/09 01:35:14;;;;;;;12.95;7.80;;;;;;;;;;5057753;28;20144;-55
2021/09/09 01:37:40;;;;;;;13.48;6.80;;;;;;;;;;5049539;28;20043;-57
2021/09/09 01:40:06;;;;;;;10.77;6.97;;;;;;;;;;5049594;28;20033;-58
2021/09/09 01:42:32;;;;;;;13.40;7.20;;;;;;;;;;5052204;28;20107;-58
2021/09/09 01:44:58;;;;;;;11.18;6.65;;;;;;;;;;5051820;28;20056;-56
2021/09/09 01:47:24;;;;;;;15.27;7.88;;;;;;;;;;5051785;28;20029;-58
2021/09/09 01:49:51;;;;;;;13.25;8.13;;;;;;;;;;5046720;28;20100;-57
2021/09/09 01:52:17;;;;;;;10.95;6.97;;;;;;;;;;5040668;28;20033;-56
2021/09/09 01:54:42;;;;;;;14.18;8.15;;;;;;;;;;5049316;28;20064;-57
2021/09/09 01:57:08;;;;;;;13.05;7.40;;;;;;;;;;5048203;28;20104;-55
2021/09/09 01:59:35;;;;;;;11.52;7.18;;;;;;;;;;5046507;28;20389;-59
2021/09/09 02:02:01;;;;;;;12.25;6.95;;;;;;;;;;5042978;28;20120;-58
2021/09/09 02:04:29;;;;;;;14.45;8.00;;;;;;;;;;5044903;28;20095;-58
2021/09/09 02:06:55;;;;;;;14.60;7.40;;;;;;;;;;5058444;28;20056;-58
2021/09/09 02:09:21;;;;;;;13.32;8.20;;;;;;;;;;5039447;28;20017;-57
2021/09/09 02:11:47;;;;;;;10.85;7.07;;;;;;;;;;5039217;28;20029;-57
2021/09/09 02:14:13;;;;;;;12.65;6.97;;;;;;;;;;5046789;28;20075;-59
2021/09/09 02:16:38;;;;;;;13.65;7.70;;;;;;;;;;5044541;28;20044;-59
2021/09/09 02:19:04;;;;;;;13.32;6.80;;;;;;;;;;5040627;28;20045;-56
2021/09/09 02:21:32;;;;;;;12.77;6.85;;;;;;;;;;5042148;28;20045;-58
2021/09/09 02:23:58;;;;;;;12.93;7.63;;;;;;;;;;5048108;28;20028;-53
2021/09/09 02:26:24;;;;;;;13.80;7.88;;;;;;;;;;5043660;28;20021;-56
2021/09/09 02:28:50;;;;;;;13.48;7.72;;;;;;;;;;5051038;28;20024;-55
2021/09/09 02:31:16;;;;;;;15.63;8.20;;;;;;;;;;5051983;28;20030;-59
2021/09/09 02:33:41;;;;;;;11.13;7.50;;;;;;;;;;5043625;28;20036;-59
2021/09/09 02:36:07;;;;;;;12.07;6.78;;;;;;;;;;5050155;28;20028;-59
2021/09/09 02:38:33;;;;;;;13.05;7.72;;;;;;;;;;5053905;28;20033;-58
2021/09/09 02:40:59;;;;;;;13.20;7.03;;;;;;;;;;5045691;28;20103;-59
2021/09/09 02:43:25;;;;;;;11.82;7.43;;;;;;;;;;5047145;28;20061;-58
2021/09/09 02:45:51;;;;;;;12.35;7.43;;;;;;;;;;5054856;28;20024;-59
2021/09/09 02:48:17;;;;;;;12.77;7.57;;;;;;;;;;5044250;28;20029;-57
2021/09/09 02:50:43;;;;;;;11.00;6.15;;;;;;;;;;5045060;28;20057;-57
2021/09/09 02:53:09;;;;;;;18.50;6.95;;;;;;;;;;5052674;28;20414;-56
2021/09/09 02:55:35;;;;;;;12.55;7.47;;;;;;;;;;5055217;28;20025;-58
2021/09/09 02:58:01;;;;;;;11.40;6.63;;;;;;;;;;5042801;28;20026;-57
2021/09/09 03:00:27;;;;;;;12.98;7.05;;;;;;;;;;5040009;28;20032;-56
2021/09/09 03:02:53;;;;;;;11.63;6.82;;;;;;;;;;5043674;28;20449;-58
2021/09/09 03:05:19;;;;;;;11.55;6.88;;;;;;;;;;5025184;28;20036;-57
2021/09/09 03:07:45;;;;;;;16.23;6.95;;;;;;;;;;5055874;28;20017;-58
2021/09/09 03:10:12;;;;;;;12.63;6.72;;;;;;;;;;5056296;28;20036;-58
2021/09/09 03:12:38;;;;;;;12.32;6.97;;;;;;;;;;5062591;28;20101;-57
2021/09/09 03:15:04;;;;;;;12.55;6.18;;;;;;;;;;5054768;28;20016;-56
2021/09/09 03:17:30;;;;;;;16.23;8.43;;;;;;;;;;5048989;28;20029;-59
2021/09/09 03:19:56;;;;;;;11.18;6.75;;;;;;;;;;5030048;28;20053;-59
2021/09/09 03:22:22;;;;;;;10.82;6.93;;;;;;;;;;5051354;28;20029;-56
2021/09/09 03:24:48;;;;;;;10.68;7.13;;;;;;;;;;5057731;28;20021;-59
2021/09/09 03:27:14;;;;;;;10.77;6.35;;;;;;;;;;5049874;28;20407;-59
2021/09/09 03:29:40;;;;;;;12.15;6.97;;;;;;;;;;5044443;28;20021;-59
2021/09/09 03:32:07;;;;;;;10.18;6.32;;;;;;;;;;5049368;28;20052;-58
2021/09/09 03:34:33;;;;;;;11.45;6.68;;;;;;;;;;5050150;28;20037;-58
2021/09/09 03:36:59;;;;;;;10.00;6.50;;;;;;;;;;5061808;28;20025;-58
2021/09/09 03:39:24;;;;;;;12.90;6.50;;;;;;;;;;5052558;28;20535;-57
2021/09/09 03:41:50;;;;;;;10.18;6.63;;;;;;;;;;5061360;28;20029;-58
2021/09/09 03:44:16;;;;;;;11.90;6.82;;;;;;;;;;5056904;28;20029;-58
2021/09/09 03:46:42;;;;;;;13.63;7.45;;;;;;;;;;5044716;28;20033;-57
2021/09/09 03:49:08;;;;;;;12.40;7.25;;;;;;;;;;5045582;28;20033;-57
2021/09/09 03:51:34;;;;;;;13.63;6.75;;;;;;;;;;5043395;28;20021;-57
2021/09/09 03:54:00;;;;;;;13.43;6.80;;;;;;;;;;5054552;28;20084;-55
2021/09/09 03:56:26;;;;;;;11.93;6.40;;;;;;;;;;5048232;28;20464;-58
2021/09/09 03:58:52;;;;;;;11.30;6.70;;;;;;;;;;5055490;28;20032;-56
2021/09/09 04:01:18;;;;;;;14.60;6.95;;;;;;;;;;5048681;28;20356;-58
2021/09/09 04:03:46;;;;;;;10.40;6.38;;;;;;;;;;5054337;28;20143;-59
2021/09/09 04:06:12;;;;;;;12.35;6.90;;;;;;;;;;5046876;28;20021;-59
2021/09/09 04:08:38;;;;;;;13.23;6.68;;;;;;;;;;5045745;28;20032;-59
2021/09/09 04:11:04;;;;;;;10.13;6.40;;;;;;;;;;5052782;28;20035;-58
2021/09/09 04:13:30;;;;;;;12.38;6.72;;;;;;;;;;5053138;28;20079;-58
2021/09/09 04:15:56;;;;;;;11.93;6.80;;;;;;;;;;5045907;28;20075;-59
2021/09/09 04:18:22;;;;;;;11.40;6.53;;;;;;;;;;5036740;28;20156;-58
2021/09/09 04:20:48;;;;;;;13.60;7.03;;;;;;;;;;5051214;28;20159;-54
2021/09/09 04:23:14;;;;;;;12.73;7.40;;;;;;;;;;5036323;28;20037;-58
2021/09/09 04:25:40;;;;;;;14.02;6.63;;;;;;;;;;5044622;28;20476;-57
2021/09/09 04:28:06;;;;;;;10.88;6.88;;;;;;;;;;5038300;28;20022;-57
2021/09/09 04:30:32;;;;;;;11.90;7.10;;;;;;;;;;5044624;28;20029;-57
2021/09/09 04:32:58;;;;;;;10.63;6.68;;;;;;;;;;5059759;28;20031;-58
2021/09/09 04:35:23;;;;;;;10.30;6.80;;;;;;;;;;5042801;28;20501;-57
2021/09/09 04:37:49;;;;;;;11.90;7.10;;;;;;;;;;5060503;28;20082;-57
2021/09/09 04:40:15;;;;;;;12.18;6.55;;;;;;;;;;5042774;28;20037;-58
2021/09/09 04:42:41;;;;;;;11.32;6.78;;;;;;;;;;5053436;28;20468;-54
2021/09/09 04:45:08;;;;;;;15.27;6.63;;;;;;;;;;5042440;28;20025;-57
2021/09/09 04:47:36;;;;;;;12.32;7.32;;;;;;;;;;5040866;28;20164;-56
2021/09/09 04:50:02;;;;;;;11.18;7.30;;;;;;;;;;5054823;28;20025;-55
2021/09/09 04:52:28;;;;;;;13.73;7.18;;;;;;;;;;5051239;28;20575;-58
2021/09/09 04:54:54;;;;;;;11.10;6.75;;;;;;;;;;5047164;28;20124;-59
2021/09/09 04:57:20;;;;;;;11.07;6.50;;;;;;;;;;5047944;28;20040;-59
2021/09/09 04:59:46;;;;;;;13.13;6.65;;;;;;;;;;5041064;28;20377;-59
2021/09/09 05:02:12;;;;;;;12.93;7.43;;;;;;;;;;5042539;28;20025;-58
2021/09/09 05:04:39;;;;;;;10.45;6.53;;;;;;;;;;5049445;28;20050;-57
2021/09/09 05:07:05;;;;;;;12.10;6.82;;;;;;;;;;5047918;28;20021;-57
2021/09/09 05:09:31;;;;;;;12.02;7.20;;;;;;;;;;5041427;28;20087;-58
2021/09/09 05:11:57;;;;;;;12.88;7.65;;;;;;;;;;5045421;28;20028;-58
2021/09/09 05:14:23;;;;;;;14.48;8.00;;;;;;;;;;5024162;28;20075;-56
2021/09/09 05:16:49;;;;;;;12.50;6.78;;;;;;;;;;5049729;28;20038;-57
2021/09/09 05:19:15;;;;;;;12.15;7.25;;;;;;;;;;5046253;28;20067;-57
2021/09/09 05:21:41;;;;;;;12.60;7.70;;;;;;;;;;5045373;28;20028;-58
2021/09/09 05:24:07;;;;;;;11.80;7.40;;;;;;;;;;5046949;28;20025;-57
2021/09/09 05:26:33;;;;;;;16.08;8.32;;;;;;;;;;5053435;28;20028;-59
2021/09/09 05:28:59;;;;;;;16.48;7.93;;;;;;;;;;5039920;28;20048;-58
2021/09/09 05:31:25;;;;;;;11.48;7.00;;;;;;;;;;5049437;28;20025;-57
2021/09/09 05:33:51;;;;;;;13.40;7.93;;;;;;;;;;5046572;28;20571;-58
2021/09/09 05:36:17;;;;;;;13.98;7.68;;;;;;;;;;5041828;28;20090;-59
2021/09/09 05:38:43;;;;;;;13.75;7.40;;;;;;;;;;5043995;28;20083;-56
2021/09/09 05:41:09;;;;;;;13.27;6.82;;;;;;;;;;5024909;28;20398;-59
2021/09/09 05:43:35;;;;;;;13.73;7.90;;;;;;;;;;5046123;28;20036;-59
2021/09/09 05:46:01;;;;;;;12.38;7.35;;;;;;;;;;5042594;28;20028;-57
2021/09/09 05:48:27;;;;;;;11.98;6.95;;;;;;;;;;5045425;28;20036;-59
2021/09/09 05:50:53;;;;;;;10.45;7.05;;;;;;;;;;5049159;28;20033;-55
2021/09/09 05:53:19;;;;;;;12.32;6.93;;;;;;;;;;5054406;28;20461;-59
2021/09/09 05:55:45;;;;;;;13.10;7.60;;;;;;;;;;5051868;28;20390;-57
2021/09/09 05:58:11;;;;;;;13.30;7.40;;;;;;;;;;5055975;28;20103;-58
2021/09/09 06:00:37;;;;;;;15.15;7.55;;;;;;;;;;5042927;28;20033;-57
2021/09/09 06:03:03;;;;;;;11.02;6.30;;;;;;;;;;5065076;28;20100;-54
2021/09/09 06:05:29;;;;;;;10.25;6.57;;;;;;;;;;5056665;28;20111;-58
2021/09/09 06:07:55;;;;;;;12.20;6.28;;;;;;;;;;5054536;28;20017;-57
2021/09/09 06:10:21;;;;;;;12.02;6.88;;;;;;;;;;5068990;28;20020;-57
2021/09/09 06:12:47;;;;;;;7.97;5.63;;;;;;;;;;5066123;28;20028;-57
2021/09/09 06:15:13;;;;;;;11.10;6.38;;;;;;;;;;5070787;28;20025;-57
2021/09/09 06:17:39;;;;;;;12.23;6.55;;;;;;;;;;5050200;28;20044;-58
2021/09/09 06:20:06;;;;;;;12.82;7.53;;;;;;;;;;5058285;28;20722;-57
2021/09/09 06:22:32;;;;;;;11.45;6.80;;;;;;;;;;5047022;28;20025;-58
2021/09/09 06:24:58;;;;;;;10.27;6.13;;;;;;;;;;5055066;28;20025;-58
2021/09/09 06:27:24;;;;;;;11.07;6.28;;;;;;;;;;5066444;28;20381;-59
2021/09/09 06:29:49;;;;;;;9.27;5.88;;;;;;;;;;5055701;28;20028;-59
2021/09/09 06:32:15;;;;;;;9.80;6.28;;;;;;;;;;5030996;28;20029;-58
2021/09/09 06:34:41;;;;;;;10.05;5.75;;;;;;;;;;5071558;28;20064;-58
2021/09/09 06:37:07;;;;;;;11.25;5.78;;;;;;;;;;5063192;28;20365;-58
2021/09/09 06:39:33;;;;;;;11.98;5.55;;;;;;;;;;5061911;28;20020;-59
2021/09/09 06:41:59;;;;;;;13.82;6.65;;;;;;;;;;5054620;28;20060;-58
2021/09/09 06:44:25;;;;;;;7.53;4.88;;;;;;;;;;5052072;28;20025;-56
2021/09/09 06:46:51;;;;;;;10.85;6.07;;;;;;;;;;5058678;28;20029;-57
2021/09/09 06:49:17;;;;;;;9.95;5.38;;;;;;;;;;5063394;28;20416;-57
2021/09/09 06:51:43;;;;;;;12.45;6.18;;;;;;;;;;5071558;28;20020;-56
2021/09/09 06:54:09;;;;;;;9.63;5.22;;;;;;;;;;5056729;28;20029;-58
2021/09/09 06:56:35;;;;;;;8.07;5.00;;;;;;;;;;5071091;28;20031;-58
2021/09/09 06:59:01;;;;;;;7.90;5.05;;;;;;;;;;5055919;28;20068;-57
2021/09/09 07:01:28;;;;;;;8.65;5.28;;;;;;;;;;5061835;28;20056;-57
2021/09/09 07:03:54;;;;;;;10.48;5.72;;;;;;;;;;5057040;28;20052;-55
2021/09/09 07:06:20;;;;;;;9.60;5.18;;;;;;;;;;5049759;28;20118;-58
2021/09/09 07:08:46;;;;;;;10.15;4.57;;;;;;;;;;5041527;28;20207;-56
2021/09/09 07:11:12;;;;;;;8.40;4.90;;;;;;;;;;5063509;28;20372;-58
2021/09/09 07:13:38;;;;;;;7.28;4.65;;;;;;;;;;5047593;28;20025;-59
2021/09/09 07:16:04;;;;;;;9.18;4.97;;;;;;;;;;5051863;28;20032;-56
2021/09/09 07:18:30;;;;;;;7.68;4.43;;;;;;;;;;5054712;28;20049;-58
2021/09/09 07:20:57;;;;;;;9.50;4.70;;;;;;;;;;5044397;28;20108;-59
2021/09/09 07:23:23;;;;;;;10.32;4.63;;;;;;;;;;5041958;28;20128;-58
2021/09/09 07:25:49;;;;;;;9.15;4.78;;;;;;;;;;5042631;28;20096;-58
2021/09/09 07:28:15;;;;;;;8.55;3.92;;;;;;;;;;5059136;28;20025;-59
2021/09/09 07:30:42;;;;;;;6.70;3.58;;;;;;;;;;5033575;28;20476;-57
2021/09/09 07:33:08;;;;;;;8.38;4.38;;;;;;;;;;5054162;28;20025;-59
2021/09/09 07:35:34;;;;;;;8.43;4.20;;;;;;;;;;5061196;28;20143;-57
2021/09/09 07:38:00;;;;;;;8.13;3.90;;;;;;;;;;5036391;28;20726;-59
2021/09/09 07:40:26;;;;;;;6.90;3.92;;;;;;;;;;5060261;28;20116;-58
2021/09/09 07:42:52;;;;;;;8.65;4.55;;;;;;;;;;5045506;28;20143;-55
2021/09/09 07:45:18;;;;;;;7.30;4.00;;;;;;;;;;5054255;28;20354;-56
2021/09/09 07:47:44;;;;;;;7.80;4.22;;;;;;;;;;5056612;28;20032;-59
2021/09/09 07:50:11;;;;;;;12.38;4.45;;;;;;;;;;5054079;28;20021;-57
2021/09/09 07:52:37;;;;;;;7.10;3.85;;;;;;;;;;5046424;28;20029;-57
2021/09/09 07:55:04;;;;;;;6.25;3.75;;;;;;;;;;5053578;28;20554;-58
2021/09/09 07:57:30;;;;;;;7.32;3.92;;;;;;;;;;5054077;28;20031;-57
2021/09/09 07:59:56;;;;;;;6.15;3.58;;;;;;;;;;5056771;28;20388;-59
2021/09/09 08:02:22;;;;;;;6.68;4.13;;;;;;;;;;5062511;28;20112;-58
2021/09/09 08:04:48;;;;;;;9.60;4.05;;;;;;;;;;5072263;28;20017;-59
2021/09/09 08:07:14;;;;;;;7.15;4.28;;;;;;;;;;5061574;28;20070;-59
2021/09/09 08:09:40;;;;;;;7.43;3.92;;;;;;;;;;5071383;28;20037;-59
2021/09/09 08:12:06;;;;;;;8.45;4.45;;;;;;;;;;5068896;28;20020;-59
2021/09/09 08:14:32;;;;;;;6.70;4.32;;;;;;;;;;5059381;28;20028;-59
2021/09/09 08:16:58;;;;;;;10.48;4.00;;;;;;;;;;5062519;28;20560;-57
2021/09/09 08:19:24;;;;;;;7.25;3.42;;;;;;;;;;5065052;28;20052;-58
2021/09/09 08:21:50;;;;;;;6.13;3.47;;;;;;;;;;5072919;28;20399;-59
2021/09/09 08:24:17;;;;;;;6.38;3.35;;;;;;;;;;5066441;28;20044;-58
2021/09/09 08:26:43;;;;;;;5.82;3.33;;;;;;;;;;5059645;28;20138;-59
2021/09/09 08:29:09;;;;;;;7.95;3.85;;;;;;;;;;5070848;28;20138;-59
2021/09/09 08:31:35;;;;;;;5.40;2.97;;;;;;;;;;5060088;28;20021;-58
2021/09/09 08:34:01;;;;;;;6.63;3.42;;;;;;;;;;5051682;28;20546;-58
2021/09/09 08:36:27;;;;;;;5.20;3.30;;;;;;;;;;5061517;28;20437;-57
2021/09/09 08:38:53;;;;;;;7.90;3.72;;;;;;;;;;5054552;28;20109;-59
2021/09/09 08:41:20;;;;;;;6.85;3.47;;;;;;;;;;5056800;28;20024;-59
2021/09/09 08:43:46;;;;;;;5.82;3.13;;;;;;;;;;5065426;28;20540;-59
2021/09/09 08:46:15;;;;;;;6.72;4.13;;;;;;;;;;5067333;28;20017;-59
2021/09/09 08:48:43;;;;;;;6.93;3.63;;;;;;;;;;5070868;28;20524;-59
2021/09/09 08:51:09;;;;;;;7.18;3.90;;;;;;;;;;5066497;28;20033;-60
2021/09/09 08:53:35;;;;;;;6.28;3.58;;;;;;;;;;5053518;28;20115;-59
2021/09/09 08:56:01;;;;;;;5.18;3.20;;;;;;;;;;5055943;28;20124;-59
2021/09/09 08:58:27;;;;;;;5.63;3.35;;;;;;;;;;5056932;28;20028;-55
2021/09/09 09:01:05;;;;;;;6.30;3.80;;;;;;;;;;5059510;28;20029;-57
2021/09/09 09:03:45;;;;;;;10.63;4.45;;;;;;;;;;5047882;28;20092;-57
2021/09/09 09:06:26;;;;;;;6.63;3.30;;;;;;;;;;5053635;28;20018;-57
2021/09/09 09:08:55;;;;;;;5.30;3.53;;;;;;;;;;5047482;28;20025;-58
2021/09/09 09:11:25;;;;;;;5.22;3.40;;;;;;;;;;5058225;28;20074;-57
2021/09/09 09:13:52;;;;;;;4.75;3.25;;;;;;;;;;5056286;28;20037;-59
2021/09/09 09:16:18;;;;;;;5.28;3.25;;;;;;;;;;5052607;28;20793;-59
2021/09/09 09:18:45;;;;;;;6.88;3.20;;;;;;;;;;5056135;28;20277;-59
2021/09/09 09:21:11;;;;;;;5.50;3.28;;;;;;;;;;5056210;28;20037;-58
2021/09/09 09:23:38;;;;;;;8.00;3.03;;;;;;;;;;5053237;28;20047;-58
2021/09/09 09:26:05;;;;;;;7.00;3.03;;;;;;;;;;5056806;28;20036;-57
2021/09/09 09:28:54;;;;;;;6.45;3.17;;;;;;;;;;5051062;28;20108;-57
2021/09/09 09:31:34;;;;;;;9.43;3.47;;;;;;;;;;5036320;28;20108;-56
2021/09/09 09:34:02;;;;;;;5.55;3.42;;;;;;;;;;5046751;28;20127;-57
2021/09/09 09:36:28;;;;;;;4.72;2.90;;;;;;;;;;5046323;28;20032;-57
2021/09/09 09:39:09;;;;;;;5.97;3.08;;;;;;;;;;5051555;28;20058;-58
2021/09/09 09:41:35;;;;;;;8.13;3.88;;;;;;;;;;5048538;28;20044;-58
2021/09/09 09:44:05;;;;;;;5.25;3.28;;;;;;;;;;5054334;28;20438;-58
2021/09/09 09:46:32;;;;;;;7.53;2.78;;;;;;;;;;5063763;28;20369;-58
2021/09/09 09:49:17;;;;;;;7.53;3.53;;;;;;;;;;5042913;28;20380;-56
2021/09/09 09:51:44;;;;;;;5.07;3.20;;;;;;;;;;5054165;28;20029;-58
2021/09/09 09:54:11;;;;;;;5.80;3.40;;;;;;;;;;5054937;28;20021;-57
2021/09/09 09:56:38;;;;;;;5.88;3.33;;;;;;;;;;5035294;28;20391;-57
2021/09/09 09:59:04;;;;;;;5.22;3.22;;;;;;;;;;5047603;28;20040;-59
2021/09/09 10:01:30;;;;;;;5.75;3.30;;;;;;;;;;5063422;28;20020;-59
2021/09/09 10:04:00;;;;;;;7.00;3.33;;;;;;;;;;5057569;28;20756;-58
2021/09/09 10:06:26;;;;;;;6.13;3.53;;;;;;;;;;5048468;28;20025;-58
2021/09/09 10:08:53;;;;;;;6.30;3.20;;;;;;;;;;5066374;28;20108;-60
2021/09/09 10:11:19;;;;;;;5.05;2.80;;;;;;;;;;5061325;28;20021;-59
2021/09/09 10:13:45;;;;;;;7.00;3.15;;;;;;;;;;5066958;28;20041;-59
2021/09/09 10:16:12;;;;;;;4.35;2.67;;;;;;;;;;5062992;28;20116;-60
2021/09/09 10:18:38;;;;;;;4.97;2.90;;;;;;;;;;5045888;28;20095;-59
2021/09/09 10:21:04;;;;;;;6.30;3.30;;;;;;;;;;5058694;28;20177;-58
2021/09/09 10:23:30;;;;;;;5.55;3.10;;;;;;;;;;5040080;28;20594;-59
2021/09/09 10:26:01;;;;;;;4.57;2.97;;;;;;;;;;5056596;28;20029;-58
2021/09/09 10:28:38;;;;;;;6.75;3.85;;;;;;;;;;5047545;28;20037;-58
2021/09/09 10:31:06;;;;;;;3.90;2.88;;;;;;;;;;5060667;28;20460;-58
2021/09/09 10:33:32;;;;;;;4.93;3.00;;;;;;;;;;5069449;28;20033;-53
2021/09/09 10:35:59;;;;;;;6.20;3.55;;;;;;;;;;5061244;28;20515;-57
2021/09/09 10:38:27;;;;;;;4.53;2.90;;;;;;;;;;5058842;28;20524;-58
2021/09/09 10:40:53;;;;;;;3.53;2.88;;;;;;;;;;5064600;28;20072;-57
2021/09/09 10:43:25;;;;;;;3.75;2.38;;;;;;;;;;5059470;28;20525;-59
2021/09/09 10:46:11;;;;;;;5.60;3.08;;;;;;;;;;5064818;28;20120;-59
2021/09/09 10:48:37;;;;;;;5.30;3.05;;;;;;;;;;5065355;28;20024;-59
2021/09/09 10:51:12;;;;;;;6.93;3.20;;;;;;;;;;5065841;28;20035;-58
2021/09/09 10:53:57;;;;;;;5.47;2.92;;;;;;;;;;5042637;28;20056;-59
2021/09/09 10:56:28;;;;;;;5.22;3.33;;;;;;;;;;5051153;28;20032;-58
2021/09/09 10:59:11;;;;;;;4.28;2.75;;;;;;;;;;5039279;28;20048;-59
2021/09/09 11:01:37;;;;;;;4.50;2.97;;;;;;;;;;5051458;28;20029;-58
2021/09/09 11:04:04;;;;;;;6.10;3.40;;;;;;;;;;5059796;28;20495;-58
2021/09/09 11:06:30;;;;;;;6.13;3.33;;;;;;;;;;5055638;28;20079;-59
2021/09/09 11:08:57;;;;;;;4.70;2.92;;;;;;;;;;5048147;28;20024;-59
2021/09/09 11:11:25;;;;;;;4.55;3.20;;;;;;;;;;5052199;28;20128;-57
2021/09/09 11:14:00;;;;;;;5.55;2.97;;;;;;;;;;5055715;28;20024;-58
2021/09/09 11:16:30;;;;;;;5.55;2.92;;;;;;;;;;5051516;28;20121;-58
2021/09/09 11:18:57;;;;;;;6.35;3.20;;;;;;;;;;5050107;28;20052;-57
2021/09/09 11:21:24;;;;;;;4.90;2.95;;;;;;;;;;5059861;28;20033;-56
2021/09/09 11:23:56;;;;;;;8.00;3.47;;;;;;;;;;5057771;28;20380;-59
2021/09/09 11:26:22;;;;;;;5.18;3.28;;;;;;;;;;5057602;28;20056;-59
2021/09/09 11:28:49;;;;;;;7.68;3.63;;;;;;;;;;5051731;28;20071;-58
2021/09/09 11:31:18;;;;;;;8.73;3.92;;;;;;;;;;5050701;28;20029;-57
2021/09/09 11:33:48;;;;;;;5.25;3.15;;;;;;;;;;5055618;28;20025;-57
2021/09/09 11:36:14;;;;;;;5.70;3.33;;;;;;;;;;5053096;28;20108;-57
2021/09/09 11:38:40;;;;;;;6.15;3.60;;;;;;;;;;5054332;28;20104;-58
2021/09/09 11:41:16;;;;;;;5.15;2.65;;;;;;;;;;5052282;28;20668;-59
2021/09/09 11:43:47;;;;;;;4.85;3.25;;;;;;;;;;5055093;28;20033;-58
2021/09/09 11:46:13;;;;;;;4.03;2.60;;;;;;;;;;5035159;28;20070;-57
2021/09/09 11:48:39;;;;;;;6.88;3.28;;;;;;;;;;5044008;28;20148;-59
2021/09/09 11:51:05;;;;;;;7.10;3.22;;;;;;;;;;5052104;28;20108;-59
2021/09/09 11:53:31;;;;;;;4.55;2.72;;;;;;;;;;5047282;28;20112;-59
2021/09/09 11:55:57;;;;;;;6.85;3.42;;;;;;;;;;5061673;28;20025;-59
2021/09/09 11:58:36;;;;;;;4.90;2.80;;;;;;;;;;5049235;28;20030;-58
2021/09/09 12:01:03;;;;;;;4.07;2.58;;;;;;;;;;5065990;28;20033;-59
2021/09/09 12:03:29;;;;;;;5.20;3.33;;;;;;;;;;5061014;28;20048;-59
2021/09/09 12:05:56;;;;;;;4.57;2.67;;;;;;;;;;5049674;28;20485;-57
2021/09/09 12:08:22;;;;;;;5.15;3.08;;;;;;;;;;5054310;28;20485;-59
2021/09/09 12:10:48;;;;;;;3.90;2.53;;;;;;;;;;5053902;28;20104;-60
2021/09/09 12:13:29;;;;;;;7.00;3.30;;;;;;;;;;5029161;28;20113;-58
2021/09/09 12:15:55;;;;;;;4.82;2.58;;;;;;;;;;5063660;28;20457;-59
2021/09/09 12:18:30;;;;;;;4.57;2.70;;;;;;;;;;5068818;28;20052;-57
2021/09/09 12:21:06;;;;;;;6.53;2.72;;;;;;;;;;5051148;28;20033;-58
2021/09/09 12:23:32;;;;;;;6.43;2.75;;;;;;;;;;5043069;28;20037;-59
2021/09/09 12:26:13;;;;;;;4.20;2.72;;;;;;;;;;5048162;28;20025;-57
2021/09/09 12:28:40;;;;;;;3.95;2.55;;;;;;;;;;5040105;28;20071;-59
2021/09/09 12:31:06;;;;;;;3.72;2.53;;;;;;;;;;5049794;28;20057;-58
2021/09/09 12:33:35;;;;;;;5.60;2.75;;;;;;;;;;5056510;28;20114;-60
2021/09/09 12:36:04;;;;;;;3.95;2.47;;;;;;;;;;5056252;28;20126;-60
2021/09/09 12:38:41;;;;;;;5.65;2.33;;;;;;;;;;5055021;28;20062;-60
2021/09/09 12:41:08;;;;;;;8.27;2.70;;;;;;;;;;5053596;28;20029;-61
2021/09/09 12:43:38;;;;;;;3.83;2.42;;;;;;;;;;5050583;28;20044;-59
2021/09/09 12:46:05;;;;;;;3.92;2.17;;;;;;;;;;5050922;28;20556;-60
2021/09/09 12:48:31;;;;;;;2.60;1.88;;;;;;;;;;5051911;28;20028;-57
2021/09/09 12:51:01;;;;;;;4.10;2.05;;;;;;;;;;5068375;28;20024;-57
2021/09/09 12:53:31;;;;;;;3.53;1.95;;;;;;;;;;5052179;28;20505;-56
2021/09/09 12:55:58;;;;;;;9.63;2.13;;;;;;;;;;5047936;28;20029;-58
2021/09/09 12:58:24;;;;;;;3.70;1.88;;;;;;;;;;5045286;28;20033;-57
2021/09/09 13:00:50;;;;;;;2.85;1.30;;;;;;;;;;5058351;28;20484;-54
2021/09/09 13:03:16;;;;;;;2.60;1.50;;;;;;;;;;5041080;28;20029;-58
2021/09/09 13:05:42;;;;;;;3.05;1.63;;;;;;;;;;5050127;28;20033;-58
2021/09/09 13:08:08;;;;;;;3.50;1.50;;;;;;;;;;5045319;28;20029;-57
2021/09/09 13:10:34;;;;;;;2.60;1.73;;;;;;;;;;5053583;28;20365;-56
2021/09/09 13:13:00;;;;;;;2.30;1.60;;;;;;;;;;5047885;28;20028;-57
2021/09/09 13:15:26;;;;;;;3.28;1.35;;;;;;;;;;5047918;28;20037;-57
2021/09/09 13:17:53;;;;;;;2.70;1.50;;;;;;;;;;5050900;28;20028;-57
2021/09/09 13:20:20;;;;;;;2.70;1.58;;;;;;;;;;5045380;28;20020;-57
2021/09/09 13:22:47;;;;;;;2.22;1.25;;;;;;;;;;5042940;28;20140;-56
2021/09/09 13:25:13;;;;;;;4.82;1.58;;;;;;;;;;5049310;28;20036;-55
2021/09/09 13:27:39;;;;;;;2.53;1.63;;;;;;;;;;5044141;28;20454;-57
2021/09/09 13:30:09;;;;;;;3.08;1.20;;;;;;;;;;5044620;28;20025;-56
2021/09/09 13:32:34;;;;;;;2.88;1.50;;;;;;;;;;5046486;28;20519;-57
2021/09/09 13:35:00;;;;;;;3.28;1.67;;;;;;;;;;5043808;28;20029;-49
2021/09/09 13:37:27;;;;;;;3.63;1.70;;;;;;;;;;5042537;28;20558;-55
2021/09/09 13:39:53;;;;;;;2.72;1.77;;;;;;;;;;5026378;28;20045;-54
2021/09/09 13:42:19;;;;;;;1.92;1.13;;;;;;;;;;5043665;28;20017;-57
2021/09/09 13:44:45;;;;;;;2.75;1.40;;;;;;;;;;5050907;28;20033;-57
2021/09/09 13:47:12;;;;;;;2.72;1.55;;;;;;;;;;5040124;28;20040;-54
2021/09/09 13:49:38;;;;;;;3.00;1.50;;;;;;;;;;5022341;28;20033;-56
2021/09/09 13:52:04;;;;;;;1.98;1.10;;;;;;;;;;5038134;28;20536;-57
2021/09/09 13:54:30;;;;;;;2.33;1.58;;;;;;;;;;5038558;28;20033;-58
2021/09/09 13:56:56;;;;;;;3.33;1.52;;;;;;;;;;5058377;28;20025;-58
2021/09/09 13:59:22;;;;;;;2.33;1.50;;;;;;;;;;5048038;28;20060;-58
2021/09/09 14:01:47;;;;;;;2.60;1.70;;;;;;;;;;5046669;28;20020;-58
2021/09/09 14:04:13;;;;;;;3.13;1.33;;;;;;;;;;5031034;28;20025;-57
2021/09/09 14:06:39;;;;;;;3.00;1.67;;;;;;;;;;5052424;28;20025;-57
2021/09/09 14:09:05;;;;;;;2.13;1.40;;;;;;;;;;5044076;28;20025;-56
2021/09/09 14:11:33;;;;;;;4.65;1.60;;;;;;;;;;5050137;28;20460;-57
2021/09/09 14:13:59;;;;;;;2.22;1.38;;;;;;;;;;5052215;28;20022;-57
2021/09/09 14:16:27;;;;;;;2.67;1.50;;;;;;;;;;5052273;28;20031;-57
2021/09/09 14:18:53;;;;;;;2.92;1.48;;;;;;;;;;5043843;28;20504;-55
2021/09/09 14:21:19;;;;;;;2.13;1.20;;;;;;;;;;5037407;28;20059;-57
2021/09/09 14:23:45;;;;;;;2.10;1.52;;;;;;;;;;5047577;28;20033;-57
2021/09/09 14:26:11;;;;;;;2.17;1.30;;;;;;;;;;5041336;28;20325;-58
2021/09/09 14:28:37;;;;;;;2.30;1.33;;;;;;;;;;5045811;28;20036;-57
2021/09/09 14:31:03;;;;;;;4.03;1.27;;;;;;;;;;5043566;28;20033;-55
2021/09/09 14:33:29;;;;;;;2.78;1.60;;;;;;;;;;5053464;28;20473;-58